Current Weather Conditions: station 63114

sailwx.info

Wind from 200 at 34 knots

Air temperature 6.4° C
Visibility: greater than 1.1 NM
Dewpoint 5.5° C

Last reported at 2015-Jan-25 10:00 UTC.
Time now 2015-Jan-25 12:16 UTC

Location: N 61°18' E 001°42'.
View on Google Maps.

See reports from other nearby stations

  
Tides and Currents Weather Stations Pressure Air Temp Water Temp Dewpoint Dewpoint Depression Visibility Wind Speed Wind Dir Waves Ship Positions
date/time (UTC)wind fromknots sea level pressurealtimeterstation pressurevisibilityair tempwater tempwave heightnotes
2015-Jan-25 10:00 200 34 1.1 6.4
2015-Jan-25 09:00 200 32 2.2 6.3
2015-Jan-25 08:00 200 27 2.2 5.8
2015-Jan-25 07:00 200 24 2.2 5.4
2015-Jan-25 06:00 200 19 2.2 5.2
2015-Jan-25 05:00 210 14 10.8 5.9
2015-Jan-25 04:00 230 9 10.8 5.6
2015-Jan-25 03:00 280 4 27.0 5.3
2015-Jan-25 02:00 300 8 27.0 5.1
2015-Jan-25 01:00 300 14 27.0 5.0
2015-Jan-25 00:00 310 15 10.8 4.8
2015-Jan-24 23:00 300 19 10.8 4.9
2015-Jan-24 22:00 300 18 10.8 3.8
2015-Jan-24 21:00 310 17 10.8 4.7
2015-Jan-24 20:00 290 18 10.8 4.8
2015-Jan-24 19:00 260 14 10.8 4.5
2015-Jan-24 18:00 270 19 27.0 5.3
2015-Jan-24 17:00 280 16 10.8 4.6
2015-Jan-24 16:00 300 20 10.8 4.0
2015-Jan-24 15:00 310 23 5.4 2.5
2015-Jan-24 14:00 300 17 10.8 3.5
2015-Jan-24 13:00 310 27 5.4 1.6
2015-Jan-24 12:00 320 16 27.0 5.3
2015-Jan-24 11:00 280 14 27.0 3.7
2015-Jan-24 10:00 270 18 10.8 3.4
2015-Jan-24 09:00 260 20 10.8 4.3
2015-Jan-24 08:00 260 23 10.8 4.0
2015-Jan-24 07:00 230 20 10.8 3.5
2015-Jan-24 06:00 250 22 27.0 4.4
2015-Jan-24 05:00 260 17 27.0 3.9
2015-Jan-24 04:00 270 18 27.0 5.1
2015-Jan-24 03:00 260 20 10.8 3.7
2015-Jan-24 02:00 260 18 10.8 5.3
2015-Jan-24 01:00 250 20 10.8 5.2
2015-Jan-24 00:00 260 23 10.8 5.7
2015-Jan-23 23:00 260 23 10.8 6.1
2015-Jan-23 22:00 250 22 10.8 6.2
2015-Jan-23 21:00 260 23 10.8 6.0
2015-Jan-23 20:00 260 20 10.8 7.2
2015-Jan-23 19:00 240 20 10.8 6.5
2015-Jan-23 18:00 210 33 2.2 6.7
2015-Jan-23 17:00 200 36 2.2 6.2
2015-Jan-23 16:00 190 41 2.2 6.0
2015-Jan-23 15:00 190 40 2.2 6.5
2015-Jan-23 14:00 190 37 2.2 6.5
2015-Jan-23 13:00 200 39 5.4 6.8
2015-Jan-23 12:00 200 40 6.9